sensor_id;sensor_type;location;lat;lon;timestamp;temperature;humidity
35804;DHT22;21924;51.934;7.414;2022-12-07T00:00:35;5.00;99.90
35804;DHT22;21924;51.934;7.414;2022-12-07T00:03:19;5.00;99.90
35804;DHT22;21924;51.934;7.414;2022-12-07T00:06:05;5.00;99.90
35804;DHT22;21924;51.934;7.414;2022-12-07T00:08:50;5.00;99.90
35804;DHT22;21924;51.934;7.414;2022-12-07T00:11:34;5.00;99.90
35804;DHT22;21924;51.934;7.414;2022-12-07T00:14:19;5.00;99.90
35804;DHT22;21924;51.934;7.414;2022-12-07T00:17:03;5.00;99.90
35804;DHT22;21924;51.934;7.414;2022-12-07T00:19:48;5.00;99.90
35804;DHT22;21924;51.934;7.414;2022-12-07T00:22:32;5.00;99.90
35804;DHT22;21924;51.934;7.414;2022-12-07T00:25:16;5.00;99.90
35804;DHT22;21924;51.934;7.414;2022-12-07T00:28:00;4.90;99.90
35804;DHT22;21924;51.934;7.414;2022-12-07T00:30:45;4.90;99.90
35804;DHT22;21924;51.934;7.414;2022-12-07T00:33:29;4.80;99.90
35804;DHT22;21924;51.934;7.414;2022-12-07T00:36:16;4.80;99.90
35804;DHT22;21924;51.934;7.414;2022-12-07T00:39:00;4.80;99.90
35804;DHT22;21924;51.934;7.414;2022-12-07T00:41:44;4.80;99.90
35804;DHT22;21924;51.934;7.414;2022-12-07T00:44:29;4.90;99.90
35804;DHT22;21924;51.934;7.414;2022-12-07T00:47:13;4.80;99.90
35804;DHT22;21924;51.934;7.414;2022-12-07T00:49:57;4.80;99.90
35804;DHT22;21924;51.934;7.414;2022-12-07T00:52:42;4.70;99.90
35804;DHT22;21924;51.934;7.414;2022-12-07T00:55:26;4.70;99.90
35804;DHT22;21924;51.934;7.414;2022-12-07T00:58:10;4.70;99.90
35804;DHT22;21924;51.934;7.414;2022-12-07T01:01:00;4.70;99.90
35804;DHT22;21924;51.934;7.414;2022-12-07T01:03:45;4.70;99.90
35804;DHT22;21924;51.934;7.414;2022-12-07T01:06:30;4.60;99.90
35804;DHT22;21924;51.934;7.414;2022-12-07T01:09:14;4.60;99.90
35804;DHT22;21924;51.934;7.414;2022-12-07T01:11:58;4.50;99.90
35804;DHT22;21924;51.934;7.414;2022-12-07T01:14:43;4.40;99.90
35804;DHT22;21924;51.934;7.414;2022-12-07T01:17:28;4.30;99.90
35804;DHT22;21924;51.934;7.414;2022-12-07T01:20:12;4.20;99.90
35804;DHT22;21924;51.934;7.414;2022-12-07T01:22:57;4.20;99.90
35804;DHT22;21924;51.934;7.414;2022-12-07T01:25:41;4.20;99.90
35804;DHT22;21924;51.934;7.414;2022-12-07T01:28:26;4.30;99.90
35804;DHT22;21924;51.934;7.414;2022-12-07T01:31:13;4.30;99.90
35804;DHT22;21924;51.934;7.414;2022-12-07T01:34:01;4.30;99.90
35804;DHT22;21924;51.934;7.414;2022-12-07T01:36:45;4.40;99.90
35804;DHT22;21924;51.934;7.414;2022-12-07T01:39:29;4.30;99.90
35804;DHT22;21924;51.934;7.414;2022-12-07T01:42:14;4.30;99.90
35804;DHT22;21924;51.934;7.414;2022-12-07T01:48:02;4.30;99.90
35804;DHT22;21924;51.934;7.414;2022-12-07T01:50:48;4.20;99.90
35804;DHT22;21924;51.934;7.414;2022-12-07T01:53:36;4.20;99.90
35804;DHT22;21924;51.934;7.414;2022-12-07T01:56:24;4.00;99.90
35804;DHT22;21924;51.934;7.414;2022-12-07T01:59:10;4.00;99.90
35804;DHT22;21924;51.934;7.414;2022-12-07T02:01:55;3.90;99.90
35804;DHT22;21924;51.934;7.414;2022-12-07T02:04:39;3.90;99.90
35804;DHT22;21924;51.934;7.414;2022-12-07T02:07:24;3.90;99.90
35804;DHT22;21924;51.934;7.414;2022-12-07T02:13:14;3.90;99.90
35804;DHT22;21924;51.934;7.414;2022-12-07T02:16:08;3.90;99.90
35804;DHT22;21924;51.934;7.414;2022-12-07T02:19:24;3.90;99.90
35804;DHT22;21924;51.934;7.414;2022-12-07T02:31:19;3.50;99.90
35804;DHT22;21924;51.934;7.414;2022-12-07T02:34:18;3.40;99.90
35804;DHT22;21924;51.934;7.414;2022-12-07T02:37:11;3.30;99.90
35804;DHT22;21924;51.934;7.414;2022-12-07T02:43:24;3.20;99.90
35804;DHT22;21924;51.934;7.414;2022-12-07T02:46:15;3.20;99.90
35804;DHT22;21924;51.934;7.414;2022-12-07T02:49:00;3.10;99.90
35804;DHT22;21924;51.934;7.414;2022-12-07T02:51:46;3.00;99.90
35804;DHT22;21924;51.934;7.414;2022-12-07T02:54:30;2.90;99.90
35804;DHT22;21924;51.934;7.414;2022-12-07T02:57:25;2.90;99.90
35804;DHT22;21924;51.934;7.414;2022-12-07T03:00:16;2.90;99.90
35804;DHT22;21924;51.934;7.414;2022-12-07T03:03:10;2.80;99.90
35804;DHT22;21924;51.934;7.414;2022-12-07T03:09:11;2.70;99.90
35804;DHT22;21924;51.934;7.414;2022-12-07T03:12:15;2.80;99.90
35804;DHT22;21924;51.934;7.414;2022-12-07T03:15:06;2.80;99.90
35804;DHT22;21924;51.934;7.414;2022-12-07T03:17:53;2.80;99.90
35804;DHT22;21924;51.934;7.414;2022-12-07T03:20:41;2.80;99.90
35804;DHT22;21924;51.934;7.414;2022-12-07T03:23:27;2.80;99.90
35804;DHT22;21924;51.934;7.414;2022-12-07T03:26:15;2.90;99.90
35804;DHT22;21924;51.934;7.414;2022-12-07T03:29:07;2.90;99.90
35804;DHT22;21924;51.934;7.414;2022-12-07T03:32:05;2.90;99.90
35804;DHT22;21924;51.934;7.414;2022-12-07T03:35:06;2.90;99.90
35804;DHT22;21924;51.934;7.414;2022-12-07T03:38:03;2.90;99.90
35804;DHT22;21924;51.934;7.414;2022-12-07T03:41:00;2.90;99.90
35804;DHT22;21924;51.934;7.414;2022-12-07T03:43:45;2.90;99.90
35804;DHT22;21924;51.934;7.414;2022-12-07T03:52:26;2.80;99.90
35804;DHT22;21924;51.934;7.414;2022-12-07T03:55:23;2.70;99.90
35804;DHT22;21924;51.934;7.414;2022-12-07T03:58:17;2.70;99.90
35804;DHT22;21924;51.934;7.414;2022-12-07T04:01:03;2.70;99.90
35804;DHT22;21924;51.934;7.414;2022-12-07T04:03:47;2.70;99.90
35804;DHT22;21924;51.934;7.414;2022-12-07T04:06:31;2.60;99.90
35804;DHT22;21924;51.934;7.414;2022-12-07T04:09:15;2.60;99.90
35804;DHT22;21924;51.934;7.414;2022-12-07T04:12:00;2.50;99.90
35804;DHT22;21924;51.934;7.414;2022-12-07T04:14:44;2.50;99.90
35804;DHT22;21924;51.934;7.414;2022-12-07T04:17:28;2.50;99.90
35804;DHT22;21924;51.934;7.414;2022-12-07T04:20:13;2.40;99.90
35804;DHT22;21924;51.934;7.414;2022-12-07T04:22:57;2.40;99.90
35804;DHT22;21924;51.934;7.414;2022-12-07T04:25:41;2.30;99.90
35804;DHT22;21924;51.934;7.414;2022-12-07T04:28:25;2.30;99.90
35804;DHT22;21924;51.934;7.414;2022-12-07T04:31:10;2.30;99.90
35804;DHT22;21924;51.934;7.414;2022-12-07T04:33:54;2.40;99.90
35804;DHT22;21924;51.934;7.414;2022-12-07T04:36:39;2.30;99.90
35804;DHT22;21924;51.934;7.414;2022-12-07T04:39:28;2.20;99.90
35804;DHT22;21924;51.934;7.414;2022-12-07T04:42:13;2.20;99.90
35804;DHT22;21924;51.934;7.414;2022-12-07T04:44:57;2.20;99.90
35804;DHT22;21924;51.934;7.414;2022-12-07T04:47:42;2.20;99.90
35804;DHT22;21924;51.934;7.414;2022-12-07T04:50:26;2.20;99.90
35804;DHT22;21924;51.934;7.414;2022-12-07T04:53:10;2.10;99.90
35804;DHT22;21924;51.934;7.414;2022-12-07T04:55:54;2.10;99.90
35804;DHT22;21924;51.934;7.414;2022-12-07T04:58:38;2.00;99.90
35804;DHT22;21924;51.934;7.414;2022-12-07T05:01:23;2.00;99.90
35804;DHT22;21924;51.934;7.414;2022-12-07T05:04:08;2.00;99.90
35804;DHT22;21924;51.934;7.414;2022-12-07T05:06:52;2.00;99.90
35804;DHT22;21924;51.934;7.414;2022-12-07T05:09:37;2.00;99.90
35804;DHT22;21924;51.934;7.414;2022-12-07T05:12:21;2.10;99.90
35804;DHT22;21924;51.934;7.414;2022-12-07T05:15:05;2.20;99.90
35804;DHT22;21924;51.934;7.414;2022-12-07T05:17:50;2.40;99.90
35804;DHT22;21924;51.934;7.414;2022-12-07T05:20:36;2.50;99.90
35804;DHT22;21924;51.934;7.414;2022-12-07T05:23:20;2.50;99.90
35804;DHT22;21924;51.934;7.414;2022-12-07T05:26:04;2.60;99.90
35804;DHT22;21924;51.934;7.414;2022-12-07T05:28:53;2.60;99.90
35804;DHT22;21924;51.934;7.414;2022-12-07T05:31:38;2.60;99.90
35804;DHT22;21924;51.934;7.414;2022-12-07T05:34:22;2.60;99.90
35804;DHT22;21924;51.934;7.414;2022-12-07T05:37:06;2.60;99.90
35804;DHT22;21924;51.934;7.414;2022-12-07T05:39:51;2.60;99.90
35804;DHT22;21924;51.934;7.414;2022-12-07T05:42:35;2.60;99.90
35804;DHT22;21924;51.934;7.414;2022-12-07T05:45:19;2.60;99.90
35804;DHT22;21924;51.934;7.414;2022-12-07T05:48:04;2.60;99.90
35804;DHT22;21924;51.934;7.414;2022-12-07T05:50:49;2.60;99.90
35804;DHT22;21924;51.934;7.414;2022-12-07T05:53:33;2.60;99.90
35804;DHT22;21924;51.934;7.414;2022-12-07T05:56:17;2.60;99.90
35804;DHT22;21924;51.934;7.414;2022-12-07T05:59:02;2.60;99.90
35804;DHT22;21924;51.934;7.414;2022-12-07T06:02:08;2.70;99.90
35804;DHT22;21924;51.934;7.414;2022-12-07T06:04:53;2.60;99.90
35804;DHT22;21924;51.934;7.414;2022-12-07T06:07:37;2.60;99.90
35804;DHT22;21924;51.934;7.414;2022-12-07T06:10:21;2.50;99.90
35804;DHT22;21924;51.934;7.414;2022-12-07T06:13:06;2.40;99.90
35804;DHT22;21924;51.934;7.414;2022-12-07T06:15:50;2.40;99.90
35804;DHT22;21924;51.934;7.414;2022-12-07T06:18:34;2.40;99.90
35804;DHT22;21924;51.934;7.414;2022-12-07T06:21:18;2.30;99.90
35804;DHT22;21924;51.934;7.414;2022-12-07T06:24:03;2.30;99.90
35804;DHT22;21924;51.934;7.414;2022-12-07T06:26:47;2.30;99.90
35804;DHT22;21924;51.934;7.414;2022-12-07T06:29:32;2.20;99.90
35804;DHT22;21924;51.934;7.414;2022-12-07T06:32:16;2.20;99.90
35804;DHT22;21924;51.934;7.414;2022-12-07T06:35:00;2.20;99.90
35804;DHT22;21924;51.934;7.414;2022-12-07T06:37:45;2.20;99.90
35804;DHT22;21924;51.934;7.414;2022-12-07T06:40:29;2.20;99.90
35804;DHT22;21924;51.934;7.414;2022-12-07T06:43:13;2.20;99.90
35804;DHT22;21924;51.934;7.414;2022-12-07T06:45:57;2.30;99.90
35804;DHT22;21924;51.934;7.414;2022-12-07T06:48:43;2.30;99.90
35804;DHT22;21924;51.934;7.414;2022-12-07T06:51:27;2.30;99.90
35804;DHT22;21924;51.934;7.414;2022-12-07T06:54:13;2.30;99.90
35804;DHT22;21924;51.934;7.414;2022-12-07T06:56:57;2.20;99.90
35804;DHT22;21924;51.934;7.414;2022-12-07T06:59:42;2.20;99.90
35804;DHT22;21924;51.934;7.414;2022-12-07T07:02:26;2.10;99.90
35804;DHT22;21924;51.934;7.414;2022-12-07T07:05:10;2.00;99.90
35804;DHT22;21924;51.934;7.414;2022-12-07T07:07:54;2.00;99.90
35804;DHT22;21924;51.934;7.414;2022-12-07T07:10:39;1.80;99.90
35804;DHT22;21924;51.934;7.414;2022-12-07T07:13:23;1.80;99.90
35804;DHT22;21924;51.934;7.414;2022-12-07T07:16:08;1.80;99.90
35804;DHT22;21924;51.934;7.414;2022-12-07T07:18:52;1.80;99.90
35804;DHT22;21924;51.934;7.414;2022-12-07T07:21:36;1.80;99.90
35804;DHT22;21924;51.934;7.414;2022-12-07T07:24:20;1.80;99.90
35804;DHT22;21924;51.934;7.414;2022-12-07T07:27:05;1.70;99.90
35804;DHT22;21924;51.934;7.414;2022-12-07T07:29:49;1.70;99.90
35804;DHT22;21924;51.934;7.414;2022-12-07T07:32:33;1.70;99.90
35804;DHT22;21924;51.934;7.414;2022-12-07T07:35:18;1.70;99.90
35804;DHT22;21924;51.934;7.414;2022-12-07T07:38:03;1.70;99.90
35804;DHT22;21924;51.934;7.414;2022-12-07T07:40:47;1.80;99.90
35804;DHT22;21924;51.934;7.414;2022-12-07T07:43:32;1.80;99.90
35804;DHT22;21924;51.934;7.414;2022-12-07T07:46:16;1.80;99.90
35804;DHT22;21924;51.934;7.414;2022-12-07T07:49:01;1.80;99.90
35804;DHT22;21924;51.934;7.414;2022-12-07T07:51:45;1.90;99.90
35804;DHT22;21924;51.934;7.414;2022-12-07T07:54:29;1.80;99.90
35804;DHT22;21924;51.934;7.414;2022-12-07T07:57:13;1.80;99.90
35804;DHT22;21924;51.934;7.414;2022-12-07T07:59:58;1.70;99.90
35804;DHT22;21924;51.934;7.414;2022-12-07T08:02:42;1.70;99.90
35804;DHT22;21924;51.934;7.414;2022-12-07T08:05:27;1.60;99.90
35804;DHT22;21924;51.934;7.414;2022-12-07T08:08:11;1.60;99.90
35804;DHT22;21924;51.934;7.414;2022-12-07T08:10:55;1.60;99.90
35804;DHT22;21924;51.934;7.414;2022-12-07T08:13:40;1.60;99.90
35804;DHT22;21924;51.934;7.414;2022-12-07T08:16:24;1.60;99.90
35804;DHT22;21924;51.934;7.414;2022-12-07T08:19:08;1.60;99.90
35804;DHT22;21924;51.934;7.414;2022-12-07T08:21:52;1.70;99.90
35804;DHT22;21924;51.934;7.414;2022-12-07T08:24:37;1.80;99.90
35804;DHT22;21924;51.934;7.414;2022-12-07T08:27:21;1.90;99.90
35804;DHT22;21924;51.934;7.414;2022-12-07T08:30:08;1.90;99.90
35804;DHT22;21924;51.934;7.414;2022-12-07T08:32:52;2.00;99.90
35804;DHT22;21924;51.934;7.414;2022-12-07T08:35:36;2.10;99.90
35804;DHT22;21924;51.934;7.414;2022-12-07T08:38:21;2.20;99.90
35804;DHT22;21924;51.934;7.414;2022-12-07T08:41:05;2.30;99.90
35804;DHT22;21924;51.934;7.414;2022-12-07T08:43:51;2.40;99.90
35804;DHT22;21924;51.934;7.414;2022-12-07T08:46:40;2.40;99.90
35804;DHT22;21924;51.934;7.414;2022-12-07T08:49:30;2.50;99.90
35804;DHT22;21924;51.934;7.414;2022-12-07T08:52:17;2.50;99.90
35804;DHT22;21924;51.934;7.414;2022-12-07T08:55:03;2.60;99.90
35804;DHT22;21924;51.934;7.414;2022-12-07T08:57:48;2.60;99.90
35804;DHT22;21924;51.934;7.414;2022-12-07T09:00:33;2.70;99.90
35804;DHT22;21924;51.934;7.414;2022-12-07T09:03:17;2.80;99.90
35804;DHT22;21924;51.934;7.414;2022-12-07T09:06:01;2.90;99.90
35804;DHT22;21924;51.934;7.414;2022-12-07T09:08:48;3.10;99.90
35804;DHT22;21924;51.934;7.414;2022-12-07T09:11:33;3.40;99.90
35804;DHT22;21924;51.934;7.414;2022-12-07T09:14:18;3.60;99.90
35804;DHT22;21924;51.934;7.414;2022-12-07T09:17:12;3.70;99.90
35804;DHT22;21924;51.934;7.414;2022-12-07T09:19:56;3.70;99.90
35804;DHT22;21924;51.934;7.414;2022-12-07T09:22:41;3.70;99.90
35804;DHT22;21924;51.934;7.414;2022-12-07T09:25:25;3.60;99.90
35804;DHT22;21924;51.934;7.414;2022-12-07T09:28:10;3.50;99.90
35804;DHT22;21924;51.934;7.414;2022-12-07T09:30:54;3.40;99.90
35804;DHT22;21924;51.934;7.414;2022-12-07T09:33:38;3.40;99.90
35804;DHT22;21924;51.934;7.414;2022-12-07T09:36:23;3.40;99.90
35804;DHT22;21924;51.934;7.414;2022-12-07T09:39:07;3.50;99.90
35804;DHT22;21924;51.934;7.414;2022-12-07T09:41:51;3.50;99.90
35804;DHT22;21924;51.934;7.414;2022-12-07T09:44:35;3.60;99.90
35804;DHT22;21924;51.934;7.414;2022-12-07T09:47:20;3.70;99.90
35804;DHT22;21924;51.934;7.414;2022-12-07T09:50:10;3.70;99.90
35804;DHT22;21924;51.934;7.414;2022-12-07T09:53:46;3.80;99.90
35804;DHT22;21924;51.934;7.414;2022-12-07T09:56:14;3.90;99.90
35804;DHT22;21924;51.934;7.414;2022-12-07T09:59:01;4.00;99.90
35804;DHT22;21924;51.934;7.414;2022-12-07T10:01:48;4.10;99.90
35804;DHT22;21924;51.934;7.414;2022-12-07T10:04:33;4.30;99.90
35804;DHT22;21924;51.934;7.414;2022-12-07T10:07:17;4.50;99.90
35804;DHT22;21924;51.934;7.414;2022-12-07T10:10:04;4.70;99.90
35804;DHT22;21924;51.934;7.414;2022-12-07T10:13:07;4.80;99.90
35804;DHT22;21924;51.934;7.414;2022-12-07T10:15:55;4.80;99.90
35804;DHT22;21924;51.934;7.414;2022-12-07T10:18:41;4.70;99.90
35804;DHT22;21924;51.934;7.414;2022-12-07T10:21:26;4.50;99.90
35804;DHT22;21924;51.934;7.414;2022-12-07T10:26:56;4.30;99.90
35804;DHT22;21924;51.934;7.414;2022-12-07T10:29:50;4.30;99.90
35804;DHT22;21924;51.934;7.414;2022-12-07T10:32:36;4.30;99.90
35804;DHT22;21924;51.934;7.414;2022-12-07T10:35:23;4.40;99.90
35804;DHT22;21924;51.934;7.414;2022-12-07T10:38:16;4.40;99.90
35804;DHT22;21924;51.934;7.414;2022-12-07T10:41:07;4.50;99.90
35804;DHT22;21924;51.934;7.414;2022-12-07T10:43:56;4.50;99.90
35804;DHT22;21924;51.934;7.414;2022-12-07T10:53:35;5.10;99.90
35804;DHT22;21924;51.934;7.414;2022-12-07T10:56:54;5.30;99.90
35804;DHT22;21924;51.934;7.414;2022-12-07T10:59:52;5.40;99.90
35804;DHT22;21924;51.934;7.414;2022-12-07T11:05:42;5.20;99.90
35804;DHT22;21924;51.934;7.414;2022-12-07T11:08:44;5.10;99.90
35804;DHT22;21924;51.934;7.414;2022-12-07T11:14:38;5.20;99.90
35804;DHT22;21924;51.934;7.414;2022-12-07T11:17:51;5.40;99.90
35804;DHT22;21924;51.934;7.414;2022-12-07T11:21:10;5.60;99.90
35804;DHT22;21924;51.934;7.414;2022-12-07T11:24:10;5.70;99.90
35804;DHT22;21924;51.934;7.414;2022-12-07T11:30:13;5.80;99.90
35804;DHT22;21924;51.934;7.414;2022-12-07T11:33:10;5.80;99.90
35804;DHT22;21924;51.934;7.414;2022-12-07T11:36:29;5.70;99.90
35804;DHT22;21924;51.934;7.414;2022-12-07T11:42:18;5.50;99.90
35804;DHT22;21924;51.934;7.414;2022-12-07T11:45:14;5.50;99.90
35804;DHT22;21924;51.934;7.414;2022-12-07T11:48:29;5.60;99.90
35804;DHT22;21924;51.934;7.414;2022-12-07T11:51:16;5.60;99.90
35804;DHT22;21924;51.934;7.414;2022-12-07T11:54:11;5.60;99.90
35804;DHT22;21924;51.934;7.414;2022-12-07T11:57:01;5.60;99.90
35804;DHT22;21924;51.934;7.414;2022-12-07T11:59:56;5.50;99.90
35804;DHT22;21924;51.934;7.414;2022-12-07T12:02:53;5.40;99.90
35804;DHT22;21924;51.934;7.414;2022-12-07T12:05:39;5.40;99.90
35804;DHT22;21924;51.934;7.414;2022-12-07T12:08:29;5.30;99.90
35804;DHT22;21924;51.934;7.414;2022-12-07T12:15:13;5.20;99.90
35804;DHT22;21924;51.934;7.414;2022-12-07T12:20:48;5.20;99.90
35804;DHT22;21924;51.934;7.414;2022-12-07T12:23:43;5.30;99.90
35804;DHT22;21924;51.934;7.414;2022-12-07T12:26:32;5.30;99.90
35804;DHT22;21924;51.934;7.414;2022-12-07T12:32:39;5.30;99.90
35804;DHT22;21924;51.934;7.414;2022-12-07T12:35:35;5.40;99.90
35804;DHT22;21924;51.934;7.414;2022-12-07T12:38:27;5.50;99.90
35804;DHT22;21924;51.934;7.414;2022-12-07T12:47:43;5.70;99.90
35804;DHT22;21924;51.934;7.414;2022-12-07T12:50:36;5.70;99.90
35804;DHT22;21924;51.934;7.414;2022-12-07T12:53:24;5.70;99.90
35804;DHT22;21924;51.934;7.414;2022-12-07T12:56:40;5.70;99.90
35804;DHT22;21924;51.934;7.414;2022-12-07T12:59:35;5.60;99.90
35804;DHT22;21924;51.934;7.414;2022-12-07T13:05:32;5.40;99.90
35804;DHT22;21924;51.934;7.414;2022-12-07T13:08:24;5.30;99.90
35804;DHT22;21924;51.934;7.414;2022-12-07T13:11:31;5.30;99.90
35804;DHT22;21924;51.934;7.414;2022-12-07T13:20:43;5.50;99.90
35804;DHT22;21924;51.934;7.414;2022-12-07T13:29:20;5.60;99.90
35804;DHT22;21924;51.934;7.414;2022-12-07T13:32:26;5.50;99.90
35804;DHT22;21924;51.934;7.414;2022-12-07T13:35:28;5.50;99.90
35804;DHT22;21924;51.934;7.414;2022-12-07T13:38:23;5.60;99.90
35804;DHT22;21924;51.934;7.414;2022-12-07T13:41:16;5.60;99.90
35804;DHT22;21924;51.934;7.414;2022-12-07T13:44:12;5.60;99.90
35804;DHT22;21924;51.934;7.414;2022-12-07T13:47:21;5.60;99.90
35804;DHT22;21924;51.934;7.414;2022-12-07T13:50:31;5.80;99.90
35804;DHT22;21924;51.934;7.414;2022-12-07T13:53:15;5.80;99.90
35804;DHT22;21924;51.934;7.414;2022-12-07T13:56:00;5.80;99.90
35804;DHT22;21924;51.934;7.414;2022-12-07T13:58:44;5.80;99.90
35804;DHT22;21924;51.934;7.414;2022-12-07T14:01:32;5.80;99.90
35804;DHT22;21924;51.934;7.414;2022-12-07T14:04:36;5.80;99.90
35804;DHT22;21924;51.934;7.414;2022-12-07T14:07:26;5.80;99.90
35804;DHT22;21924;51.934;7.414;2022-12-07T14:16:36;5.30;99.90
35804;DHT22;21924;51.934;7.414;2022-12-07T14:19:56;5.00;99.90
35804;DHT22;21924;51.934;7.414;2022-12-07T14:22:41;4.70;99.90
35804;DHT22;21924;51.934;7.414;2022-12-07T14:25:26;4.50;99.90
35804;DHT22;21924;51.934;7.414;2022-12-07T14:28:29;4.40;99.90
35804;DHT22;21924;51.934;7.414;2022-12-07T14:31:18;4.40;99.90
35804;DHT22;21924;51.934;7.414;2022-12-07T14:34:09;4.40;99.90
35804;DHT22;21924;51.934;7.414;2022-12-07T14:36:55;4.40;99.90
35804;DHT22;21924;51.934;7.414;2022-12-07T14:39:39;4.50;99.90
35804;DHT22;21924;51.934;7.414;2022-12-07T14:42:27;4.50;99.90
35804;DHT22;21924;51.934;7.414;2022-12-07T14:45:22;4.70;99.90
35804;DHT22;21924;51.934;7.414;2022-12-07T14:48:15;4.80;99.90
35804;DHT22;21924;51.934;7.414;2022-12-07T14:51:00;4.80;99.90
35804;DHT22;21924;51.934;7.414;2022-12-07T14:53:47;4.90;99.90
35804;DHT22;21924;51.934;7.414;2022-12-07T14:56:32;4.90;99.90
35804;DHT22;21924;51.934;7.414;2022-12-07T14:59:16;4.90;99.90
35804;DHT22;21924;51.934;7.414;2022-12-07T15:02:01;4.90;99.90
35804;DHT22;21924;51.934;7.414;2022-12-07T15:04:45;4.90;99.90
35804;DHT22;21924;51.934;7.414;2022-12-07T15:07:29;4.80;99.90
35804;DHT22;21924;51.934;7.414;2022-12-07T15:10:26;4.80;99.90
35804;DHT22;21924;51.934;7.414;2022-12-07T15:13:13;4.80;99.90
35804;DHT22;21924;51.934;7.414;2022-12-07T15:16:19;4.80;99.90
35804;DHT22;21924;51.934;7.414;2022-12-07T15:19:05;4.70;99.90
35804;DHT22;21924;51.934;7.414;2022-12-07T15:21:49;4.70;99.90
35804;DHT22;21924;51.934;7.414;2022-12-07T15:24:33;4.60;99.90
35804;DHT22;21924;51.934;7.414;2022-12-07T15:27:18;4.60;99.90
35804;DHT22;21924;51.934;7.414;2022-12-07T15:30:03;4.50;99.90
35804;DHT22;21924;51.934;7.414;2022-12-07T15:32:51;4.50;99.90
35804;DHT22;21924;51.934;7.414;2022-12-07T15:35:45;4.40;99.90
35804;DHT22;21924;51.934;7.414;2022-12-07T15:38:29;4.40;99.90
35804;DHT22;21924;51.934;7.414;2022-12-07T15:41:15;4.40;99.90
35804;DHT22;21924;51.934;7.414;2022-12-07T15:43:59;4.40;99.90
35804;DHT22;21924;51.934;7.414;2022-12-07T15:47:04;4.40;99.90
35804;DHT22;21924;51.934;7.414;2022-12-07T15:49:48;4.40;99.90
35804;DHT22;21924;51.934;7.414;2022-12-07T15:52:32;4.40;99.90
35804;DHT22;21924;51.934;7.414;2022-12-07T15:55:17;4.40;99.90
35804;DHT22;21924;51.934;7.414;2022-12-07T15:58:01;4.40;99.90
35804;DHT22;21924;51.934;7.414;2022-12-07T16:00:45;4.40;99.90
35804;DHT22;21924;51.934;7.414;2022-12-07T16:03:30;4.40;99.90
35804;DHT22;21924;51.934;7.414;2022-12-07T16:06:17;4.40;99.90
35804;DHT22;21924;51.934;7.414;2022-12-07T16:09:01;4.30;99.90
35804;DHT22;21924;51.934;7.414;2022-12-07T16:11:46;4.40;99.90
35804;DHT22;21924;51.934;7.414;2022-12-07T16:14:30;4.30;99.90
35804;DHT22;21924;51.934;7.414;2022-12-07T16:17:16;4.40;99.90
35804;DHT22;21924;51.934;7.414;2022-12-07T16:20:00;4.30;99.90
35804;DHT22;21924;51.934;7.414;2022-12-07T16:22:44;4.30;99.90
35804;DHT22;21924;51.934;7.414;2022-12-07T16:25:28;4.30;99.90
35804;DHT22;21924;51.934;7.414;2022-12-07T16:28:13;4.40;99.90
35804;DHT22;21924;51.934;7.414;2022-12-07T16:31:06;4.40;99.90
35804;DHT22;21924;51.934;7.414;2022-12-07T16:33:53;4.40;99.90
35804;DHT22;21924;51.934;7.414;2022-12-07T16:36:38;4.40;99.90
35804;DHT22;21924;51.934;7.414;2022-12-07T16:39:22;4.40;99.90
35804;DHT22;21924;51.934;7.414;2022-12-07T16:42:06;4.30;99.90
35804;DHT22;21924;51.934;7.414;2022-12-07T16:44:51;4.30;99.90
35804;DHT22;21924;51.934;7.414;2022-12-07T16:47:37;4.30;99.90
35804;DHT22;21924;51.934;7.414;2022-12-07T16:50:22;4.20;99.90
35804;DHT22;21924;51.934;7.414;2022-12-07T16:53:07;4.20;99.90
35804;DHT22;21924;51.934;7.414;2022-12-07T16:55:52;4.20;99.90
35804;DHT22;21924;51.934;7.414;2022-12-07T16:58:36;4.30;99.90
35804;DHT22;21924;51.934;7.414;2022-12-07T17:01:21;4.30;99.90
35804;DHT22;21924;51.934;7.414;2022-12-07T17:04:06;4.30;99.90
35804;DHT22;21924;51.934;7.414;2022-12-07T17:06:51;4.30;99.90
35804;DHT22;21924;51.934;7.414;2022-12-07T17:09:36;4.30;99.90
35804;DHT22;21924;51.934;7.414;2022-12-07T17:12:20;4.30;99.90
35804;DHT22;21924;51.934;7.414;2022-12-07T17:15:05;4.30;99.90
35804;DHT22;21924;51.934;7.414;2022-12-07T17:18:01;4.20;99.90
35804;DHT22;21924;51.934;7.414;2022-12-07T17:20:45;4.20;99.90
35804;DHT22;21924;51.934;7.414;2022-12-07T17:23:30;4.20;99.90
35804;DHT22;21924;51.934;7.414;2022-12-07T17:26:18;4.10;99.90
35804;DHT22;21924;51.934;7.414;2022-12-07T17:29:04;4.10;99.90
35804;DHT22;21924;51.934;7.414;2022-12-07T17:31:49;4.10;99.90
35804;DHT22;21924;51.934;7.414;2022-12-07T17:34:33;4.00;99.90
35804;DHT22;21924;51.934;7.414;2022-12-07T17:37:17;4.00;99.90
35804;DHT22;21924;51.934;7.414;2022-12-07T17:40:02;4.00;99.90
35804;DHT22;21924;51.934;7.414;2022-12-07T17:42:47;4.00;99.90
35804;DHT22;21924;51.934;7.414;2022-12-07T17:45:36;4.00;99.90
35804;DHT22;21924;51.934;7.414;2022-12-07T17:48:20;3.90;99.90
35804;DHT22;21924;51.934;7.414;2022-12-07T17:51:05;3.90;99.90
35804;DHT22;21924;51.934;7.414;2022-12-07T17:54:08;3.90;99.90
35804;DHT22;21924;51.934;7.414;2022-12-07T17:56:53;3.90;99.90
35804;DHT22;21924;51.934;7.414;2022-12-07T17:59:37;3.80;99.90
35804;DHT22;21924;51.934;7.414;2022-12-07T18:02:21;3.80;99.90
35804;DHT22;21924;51.934;7.414;2022-12-07T18:05:06;3.80;99.90
35804;DHT22;21924;51.934;7.414;2022-12-07T18:07:50;3.80;99.90
35804;DHT22;21924;51.934;7.414;2022-12-07T18:10:35;3.70;99.90
35804;DHT22;21924;51.934;7.414;2022-12-07T18:13:19;3.80;99.90
35804;DHT22;21924;51.934;7.414;2022-12-07T18:16:22;3.70;99.90
35804;DHT22;21924;51.934;7.414;2022-12-07T18:19:07;3.70;99.90
35804;DHT22;21924;51.934;7.414;2022-12-07T18:21:52;3.70;99.90
35804;DHT22;21924;51.934;7.414;2022-12-07T18:24:36;3.70;99.90
35804;DHT22;21924;51.934;7.414;2022-12-07T18:27:21;3.70;99.90
35804;DHT22;21924;51.934;7.414;2022-12-07T18:30:06;3.70;99.90
35804;DHT22;21924;51.934;7.414;2022-12-07T18:32:50;3.70;99.90
35804;DHT22;21924;51.934;7.414;2022-12-07T18:35:35;3.70;99.90
35804;DHT22;21924;51.934;7.414;2022-12-07T18:38:20;3.70;99.90
35804;DHT22;21924;51.934;7.414;2022-12-07T18:41:06;3.70;99.90
35804;DHT22;21924;51.934;7.414;2022-12-07T18:43:51;3.70;99.90
35804;DHT22;21924;51.934;7.414;2022-12-07T18:46:35;3.70;99.90
35804;DHT22;21924;51.934;7.414;2022-12-07T18:49:19;3.70;99.90
35804;DHT22;21924;51.934;7.414;2022-12-07T18:52:04;3.70;99.90
35804;DHT22;21924;51.934;7.414;2022-12-07T18:54:48;3.70;99.90
35804;DHT22;21924;51.934;7.414;2022-12-07T18:57:32;3.70;99.90
35804;DHT22;21924;51.934;7.414;2022-12-07T19:00:17;3.80;99.90
35804;DHT22;21924;51.934;7.414;2022-12-07T19:03:01;3.70;99.90
35804;DHT22;21924;51.934;7.414;2022-12-07T19:05:45;3.70;99.90
35804;DHT22;21924;51.934;7.414;2022-12-07T19:08:29;3.60;99.90
35804;DHT22;21924;51.934;7.414;2022-12-07T19:11:25;3.60;99.90
35804;DHT22;21924;51.934;7.414;2022-12-07T19:14:31;3.60;99.90
35804;DHT22;21924;51.934;7.414;2022-12-07T19:17:16;3.60;99.90
35804;DHT22;21924;51.934;7.414;2022-12-07T19:20:01;3.60;99.90
35804;DHT22;21924;51.934;7.414;2022-12-07T19:22:45;3.60;99.90